Terminal Aerodrome Forecast
Issued by NWS Jacksonville, FL

Home | Current Version | Previous Version | Text Only | Print | Product List | Glossary On
Versions: 1 2 3 4 5 6 7 8 9 10 11 12 13 14 15 16 17 18 19 20 21 22 23 24 25 26 27 28 29 30 31 32
000
FTUS42 KJAX 051534 CCA
TAFJAX
TAF COR
KJAX 051534Z 0515/0612 07009KT P6SM VCTS SCT025CB BKN040
      TEMPO 0515/0517 VRB15G25KT 1 1/2SM TSRA BKN020CB
     FM051700 06012KT P6SM VCTS BKN040CB BKN250
     FM060000 07006KT P6SM SCT030 BKN250=

USA.gov is the U.S. government's official web portal to all federal, state and local government web resources and services.